createdAt,value
2022-09-09T00:01:10.663Z,100.00
2022-09-09T00:03:46.610Z,100.00
2022-09-09T00:06:29.304Z,100.00
2022-09-09T00:09:02.569Z,100.00
2022-09-09T00:12:02.358Z,100.00
2022-09-09T00:15:15.491Z,100.00
2022-09-09T00:18:30.877Z,100.00
2022-09-09T00:21:08.661Z,100.00
2022-09-09T00:23:40.131Z,100.00
2022-09-09T00:26:25.749Z,100.00
2022-09-09T00:29:04.951Z,100.00
2022-09-09T00:31:32.828Z,100.00
2022-09-09T00:34:10.313Z,100.00
2022-09-09T00:36:38.896Z,100.00
2022-09-09T00:39:10.506Z,100.00
2022-09-09T00:41:51.965Z,100.00
2022-09-09T00:44:32.270Z,100.00
2022-09-09T00:47:26.909Z,100.00
2022-09-09T00:50:17.846Z,100.00
2022-09-09T00:53:19.301Z,100.00
2022-09-09T00:56:17.333Z,100.00
2022-09-09T00:58:59.189Z,100.00
2022-09-09T01:01:26.508Z,100.00
2022-09-09T01:03:55.577Z,100.00
2022-09-09T01:06:31.656Z,100.00
2022-09-09T01:09:27.601Z,100.00
2022-09-09T01:12:13.283Z,100.00
2022-09-09T01:14:48.990Z,100.00
2022-09-09T01:17:35.570Z,100.00
2022-09-09T01:20:46.011Z,100.00
2022-09-09T01:23:39.442Z,100.00
2022-09-09T01:26:41.763Z,100.00
2022-09-09T01:29:17.366Z,100.00
2022-09-09T01:32:00.167Z,100.00
2022-09-09T01:34:36.159Z,100.00
2022-09-09T01:37:10.887Z,100.00
2022-09-09T01:39:42.532Z,100.00
2022-09-09T01:42:16.005Z,100.00
2022-09-09T01:44:43.693Z,100.00
2022-09-09T01:47:10.807Z,100.00
2022-09-09T01:49:54.193Z,100.00
2022-09-09T01:52:26.192Z,100.00
2022-09-09T01:54:53.763Z,100.00
2022-09-09T01:57:40.425Z,100.00
2022-09-09T02:00:14.457Z,100.00
2022-09-09T02:03:15.349Z,100.00
2022-09-09T02:06:38.525Z,100.00
2022-09-09T02:09:23.440Z,100.00
2022-09-09T02:11:59.892Z,100.00
2022-09-09T02:14:45.255Z,100.00
2022-09-09T02:17:16.259Z,100.00
2022-09-09T02:20:06.441Z,100.00
2022-09-09T02:22:51.935Z,100.00
2022-09-09T02:25:23.146Z,100.00
2022-09-09T02:27:54.865Z,100.00
2022-09-09T02:30:22.448Z,100.00
2022-09-09T02:32:57.977Z,100.00
2022-09-09T02:35:38.523Z,100.00
2022-09-09T02:38:10.317Z,100.00
2022-09-09T02:40:38.439Z,100.00
2022-09-09T02:43:07.336Z,100.00
2022-09-09T02:46:15.983Z,100.00
2022-09-09T02:48:57.551Z,100.00
2022-09-09T02:51:41.998Z,100.00
2022-09-09T02:54:33.962Z,100.00
2022-09-09T02:57:14.650Z,100.00
2022-09-09T02:59:44.960Z,100.00
2022-09-09T03:02:12.469Z,100.00
2022-09-09T03:04:41.531Z,100.00
2022-09-09T03:07:09.015Z,100.00
2022-09-09T03:09:36.235Z,100.00
2022-09-09T03:12:05.222Z,100.00
2022-09-09T03:14:34.379Z,100.00
2022-09-09T03:17:03.246Z,100.00
2022-09-09T03:19:36.180Z,100.00
2022-09-09T03:22:05.379Z,100.00
2022-09-09T03:24:35.731Z,100.00
2022-09-09T03:27:04.872Z,100.00
2022-09-09T03:29:32.507Z,100.00
2022-09-09T03:32:02.936Z,100.00
2022-09-09T03:34:30.045Z,100.00
2022-09-09T03:36:58.691Z,100.00
2022-09-09T03:39:27.272Z,100.00
2022-09-09T03:41:54.436Z,100.00
2022-09-09T03:44:22.383Z,100.00
2022-09-09T03:46:49.451Z,100.00
2022-09-09T03:49:17.708Z,100.00
2022-09-09T03:51:45.130Z,100.00
2022-09-09T03:54:17.555Z,100.00
2022-09-09T03:56:44.706Z,100.00
2022-09-09T03:59:15.264Z,100.00
2022-09-09T04:01:42.891Z,100.00
2022-09-09T04:04:10.585Z,100.00
2022-09-09T04:06:37.670Z,100.00
2022-09-09T04:09:04.872Z,100.00
2022-09-09T04:11:33.031Z,100.00
2022-09-09T04:14:00.882Z,100.00
2022-09-09T04:16:30.255Z,100.00
2022-09-09T04:18:58.756Z,100.00
2022-09-09T04:21:25.989Z,100.00
2022-09-09T04:23:53.952Z,100.00
2022-09-09T04:26:21.600Z,100.00
2022-09-09T04:28:48.980Z,100.00
2022-09-09T04:31:22.494Z,100.00
2022-09-09T04:33:51.778Z,100.00
2022-09-09T04:36:20.319Z,100.00
2022-09-09T04:38:50.115Z,100.00
2022-09-09T04:41:18.085Z,100.00
2022-09-09T04:43:47.060Z,100.00
2022-09-09T04:46:18.066Z,100.00
2022-09-09T04:48:45.373Z,100.00
2022-09-09T04:51:14.861Z,100.00
2022-09-09T04:53:43.257Z,100.00
2022-09-09T04:56:15.090Z,100.00
2022-09-09T04:58:46.998Z,100.00
2022-09-09T05:01:22.551Z,100.00
2022-09-09T05:03:52.747Z,100.00
2022-09-09T05:06:23.247Z,100.00
2022-09-09T05:08:56.692Z,100.00
2022-09-09T05:11:29.008Z,100.00
2022-09-09T05:14:16.321Z,100.00
2022-09-09T05:16:45.265Z,100.00
2022-09-09T05:19:12.609Z,100.00
2022-09-09T05:21:45.172Z,100.00
2022-09-09T05:24:12.786Z,100.00
2022-09-09T05:26:40.596Z,100.00
2022-09-09T05:29:09.209Z,100.00
2022-09-09T05:31:36.505Z,100.00
2022-09-09T05:34:09.607Z,100.00
2022-09-09T05:36:36.836Z,100.00
2022-09-09T05:39:04.792Z,100.00
2022-09-09T05:41:33.850Z,100.00
2022-09-09T05:44:02.998Z,100.00
2022-09-09T05:46:32.294Z,100.00
2022-09-09T05:48:59.406Z,100.00
2022-09-09T05:51:33.581Z,100.00
2022-09-09T05:54:07.150Z,100.00
2022-09-09T05:56:38.177Z,100.00
2022-09-09T05:59:08.095Z,100.00
2022-09-09T06:01:41.441Z,100.00
2022-09-09T06:04:11.052Z,100.00
2022-09-09T06:06:40.878Z,100.00
2022-09-09T06:09:14.442Z,100.00
2022-09-09T06:11:44.117Z,100.00
2022-09-09T06:14:12.335Z,100.00
2022-09-09T06:16:43.210Z,100.00
2022-09-09T06:19:16.980Z,100.00
2022-09-09T06:21:45.351Z,100.00
2022-09-09T06:24:14.765Z,100.00
2022-09-09T06:26:42.263Z,100.00
2022-09-09T06:29:12.208Z,100.00
2022-09-09T06:31:42.470Z,100.00
2022-09-09T06:34:24.230Z,100.00
2022-09-09T06:36:56.143Z,100.00
2022-09-09T06:39:23.546Z,100.00
2022-09-09T06:41:53.952Z,100.00
2022-09-09T06:44:46.626Z,100.00
2022-09-09T06:47:21.427Z,100.00
2022-09-09T06:49:48.837Z,100.00
2022-09-09T06:52:18.267Z,100.00
2022-09-09T06:54:46.252Z,100.00
2022-09-09T06:57:35.877Z,100.00
2022-09-09T07:00:02.374Z,100.00
2022-09-09T07:02:32.888Z,100.00
2022-09-09T07:05:00.420Z,100.00
2022-09-09T07:07:28.249Z,100.00
2022-09-09T07:09:55.437Z,100.00
2022-09-09T07:12:23.138Z,100.00
2022-09-09T07:14:56.195Z,100.00
2022-09-09T07:17:23.319Z,100.00
2022-09-09T07:19:50.548Z,100.00
2022-09-09T07:22:18.234Z,100.00
2022-09-09T07:24:46.140Z,100.00
2022-09-09T07:27:16.474Z,100.00
2022-09-09T07:29:43.852Z,100.00
2022-09-09T07:32:11.952Z,100.00
2022-09-09T07:34:39.264Z,100.00
2022-09-09T07:37:06.740Z,100.00
2022-09-09T07:39:35.008Z,100.00
2022-09-09T07:42:02.568Z,100.00
2022-09-09T07:44:30.223Z,100.00
2022-09-09T07:47:04.874Z,100.00
2022-09-09T07:49:37.358Z,100.00
2022-09-09T07:54:41.475Z,100.00
2022-09-09T07:57:08.603Z,100.00
2022-09-09T07:59:38.533Z,100.00
2022-09-09T08:02:05.781Z,100.00
2022-09-09T08:04:35.639Z,100.00
2022-09-09T08:07:04.329Z,100.00
2022-09-09T08:09:36.481Z,100.00
2022-09-09T08:12:13.910Z,100.00
2022-09-09T08:14:41.156Z,100.00
2022-09-09T08:17:08.369Z,100.00
2022-09-09T08:19:36.740Z,100.00
2022-09-09T08:22:08.612Z,100.00
2022-09-09T08:24:37.170Z,100.00
2022-09-09T08:27:04.474Z,100.00
2022-09-09T08:29:31.738Z,100.00
2022-09-09T08:32:00.804Z,100.00
2022-09-09T08:34:29.861Z,100.00
2022-09-09T08:36:59.322Z,100.00
2022-09-09T08:39:34.912Z,100.00
2022-09-09T08:42:14.601Z,100.00
2022-09-09T08:45:30.038Z,100.00
2022-09-09T08:48:09.668Z,100.00
2022-09-09T08:50:39.492Z,100.00
2022-09-09T08:53:22.722Z,100.00
2022-09-09T08:56:04.430Z,100.00
2022-09-09T08:58:47.412Z,100.00
2022-09-09T09:01:52.190Z,100.00
2022-09-09T09:04:39.284Z,100.00
2022-09-09T09:07:18.778Z,100.00
2022-09-09T09:10:37.588Z,100.00
2022-09-09T09:13:02.647Z,100.00
2022-09-09T09:15:37.365Z,100.00
2022-09-09T09:18:06.624Z,100.00
2022-09-09T09:21:03.458Z,100.00
2022-09-09T09:23:40.634Z,100.00
2022-09-09T09:26:12.107Z,100.00
2022-09-09T09:28:41.337Z,100.00
2022-09-09T09:31:14.878Z,100.00
2022-09-09T09:33:54.197Z,100.00
2022-09-09T09:36:53.647Z,100.00
2022-09-09T09:42:24.876Z,100.00
2022-09-09T09:44:55.481Z,100.00
2022-09-09T09:47:24.417Z,100.00
2022-09-09T09:50:21.328Z,100.00
2022-09-09T09:53:05.090Z,100.00
2022-09-09T09:55:36.525Z,100.00
2022-09-09T09:58:18.455Z,100.00
2022-09-09T10:00:52.070Z,100.00
2022-09-09T10:03:32.678Z,100.00
2022-09-09T10:06:01.903Z,100.00
2022-09-09T10:08:29.095Z,100.00
2022-09-09T10:10:56.284Z,100.00
2022-09-09T10:13:41.574Z,100.00
2022-09-09T10:16:21.850Z,100.00
2022-09-09T10:19:03.891Z,100.00
2022-09-09T10:21:43.845Z,100.00
2022-09-09T10:24:10.900Z,100.00
2022-09-09T10:26:55.229Z,100.00
2022-09-09T10:29:22.306Z,100.00
2022-09-09T10:32:20.344Z,100.00
2022-09-09T10:34:53.218Z,100.00
2022-09-09T10:37:48.305Z,100.00
2022-09-09T10:40:31.426Z,100.00
2022-09-09T10:43:26.343Z,100.00
2022-09-09T10:46:18.516Z,100.00
2022-09-09T10:48:57.668Z,100.00
2022-09-09T10:51:42.491Z,100.00
2022-09-09T10:54:12.701Z,100.00
2022-09-09T10:56:43.501Z,100.00
2022-09-09T10:59:21.736Z,100.00
2022-09-09T11:02:11.734Z,100.00
2022-09-09T11:04:45.500Z,100.00
2022-09-09T11:07:18.004Z,100.00
2022-09-09T11:09:53.786Z,100.00
2022-09-09T11:12:24.698Z,100.00
2022-09-09T11:14:59.468Z,100.00
2022-09-09T11:17:37.444Z,100.00
2022-09-09T11:20:06.899Z,100.00
2022-09-09T11:23:01.268Z,100.00
2022-09-09T11:25:44.516Z,100.00
2022-09-09T11:28:39.820Z,100.00
2022-09-09T11:31:09.877Z,100.00
2022-09-09T11:34:10.984Z,100.00
2022-09-09T11:36:59.855Z,100.00
2022-09-09T11:39:33.085Z,100.00
2022-09-09T11:42:19.267Z,100.00
2022-09-09T11:44:46.930Z,100.00
2022-09-09T11:47:27.351Z,100.00
2022-09-09T11:49:55.037Z,100.00
2022-09-09T11:52:37.951Z,100.00
2022-09-09T11:55:37.792Z,100.00
2022-09-09T11:58:14.910Z,100.00
2022-09-09T12:00:49.618Z,100.00
2022-09-09T12:03:49.626Z,100.00
2022-09-09T12:06:33.678Z,100.00
2022-09-09T12:09:14.445Z,100.00
2022-09-09T12:11:41.493Z,100.00
2022-09-09T12:14:21.970Z,100.00
2022-09-09T12:16:49.572Z,100.00
2022-09-09T12:19:24.816Z,100.00
2022-09-09T12:22:42.401Z,100.00
2022-09-09T12:25:30.907Z,100.00
2022-09-09T12:28:10.342Z,100.00
2022-09-09T12:31:29.091Z,100.00
2022-09-09T12:33:56.220Z,100.00
2022-09-09T12:36:29.304Z,100.00
2022-09-09T12:39:00.686Z,100.00
2022-09-09T12:41:29.871Z,100.00
2022-09-09T12:44:10.960Z,100.00
2022-09-09T12:46:44.390Z,100.00
2022-09-09T12:49:39.420Z,100.00
2022-09-09T12:52:37.507Z,100.00
2022-09-09T12:55:07.267Z,100.00
2022-09-09T12:57:40.290Z,100.00
2022-09-09T13:00:19.992Z,100.00
2022-09-09T13:02:54.904Z,100.00
2022-09-09T13:05:25.204Z,100.00
2022-09-09T13:07:53.027Z,100.00
2022-09-09T13:10:36.744Z,100.00
2022-09-09T13:13:21.907Z,100.00
2022-09-09T13:15:56.237Z,100.00
2022-09-09T13:18:30.666Z,100.00
2022-09-09T13:21:01.200Z,97.41
2022-09-09T13:23:34.306Z,96.85
2022-09-09T13:26:05.433Z,94.41
2022-09-09T13:28:34.465Z,92.69
2022-09-09T13:31:03.874Z,93.85
2022-09-09T13:33:32.222Z,98.15
2022-09-09T13:36:03.843Z,95.80
2022-09-09T13:38:36.579Z,94.49
2022-09-09T13:41:09.452Z,90.91
2022-09-09T13:43:45.150Z,94.69
2022-09-09T13:46:42.082Z,97.14
2022-09-09T13:49:12.190Z,98.41
2022-09-09T13:51:46.403Z,100.00
2022-09-09T13:54:15.877Z,100.00
2022-09-09T13:56:44.960Z,100.00
2022-09-09T13:59:14.812Z,100.00
2022-09-09T14:01:42.375Z,100.00
2022-09-09T14:04:11.385Z,100.00
2022-09-09T14:06:40.223Z,100.00
2022-09-09T14:09:11.158Z,100.00
2022-09-09T14:11:38.511Z,100.00
2022-09-09T14:14:06.177Z,100.00
2022-09-09T14:16:33.706Z,100.00
2022-09-09T14:19:01.195Z,98.03
2022-09-09T14:21:28.689Z,97.98
2022-09-09T14:23:55.897Z,100.00
2022-09-09T14:26:23.045Z,100.00
2022-09-09T14:28:55.222Z,100.00
2022-09-09T14:31:25.675Z,100.00
2022-09-09T14:33:53.664Z,100.00
2022-09-09T14:36:21.195Z,100.00
2022-09-09T14:38:48.330Z,100.00
2022-09-09T14:41:18.089Z,100.00
2022-09-09T14:43:46.709Z,100.00
2022-09-09T14:46:16.586Z,100.00
2022-09-09T14:48:44.915Z,100.00
2022-09-09T14:51:16.135Z,100.00
2022-09-09T14:53:44.271Z,100.00
2022-09-09T14:56:13.392Z,100.00
2022-09-09T14:58:40.538Z,100.00
2022-09-09T15:01:12.673Z,100.00
2022-09-09T15:03:41.196Z,100.00
2022-09-09T15:06:09.549Z,100.00
2022-09-09T15:08:41.850Z,100.00
2022-09-09T15:11:11.575Z,100.00
2022-09-09T15:13:40.179Z,100.00
2022-09-09T15:16:15.659Z,100.00
2022-09-09T15:18:45.687Z,100.00
2022-09-09T15:21:15.548Z,100.00
2022-09-09T15:23:43.436Z,100.00
2022-09-09T15:26:11.195Z,100.00
2022-09-09T15:28:39.436Z,100.00
2022-09-09T15:31:24.128Z,100.00
2022-09-09T15:34:03.268Z,87.63
2022-09-09T15:36:33.358Z,73.75
2022-09-09T15:39:01.937Z,68.93
2022-09-09T15:41:30.152Z,59.81
2022-09-09T15:43:58.188Z,53.82
2022-09-09T15:46:33.227Z,49.97
2022-09-09T15:49:12.136Z,49.60
2022-09-09T15:51:44.934Z,64.25
2022-09-09T15:54:14.588Z,76.76
2022-09-09T15:56:42.398Z,89.69
2022-09-09T15:59:10.070Z,100.00
2022-09-09T16:01:37.265Z,100.00
2022-09-09T16:04:04.906Z,100.00
2022-09-09T16:06:32.118Z,100.00
2022-09-09T16:09:00.456Z,100.00
2022-09-09T16:11:32.184Z,100.00
2022-09-09T16:14:00.413Z,100.00
2022-09-09T16:16:30.945Z,100.00
2022-09-09T16:19:00.564Z,100.00
2022-09-09T16:21:30.201Z,100.00
2022-09-09T16:24:00.432Z,100.00
2022-09-09T16:26:28.588Z,100.00
2022-09-09T16:28:55.780Z,100.00
2022-09-09T16:31:24.705Z,100.00
2022-09-09T16:33:52.191Z,100.00
2022-09-09T16:36:23.811Z,100.00
2022-09-09T16:38:58.927Z,100.00
2022-09-09T16:41:28.567Z,100.00
2022-09-09T16:43:58.212Z,100.00
2022-09-09T16:46:26.273Z,100.00
2022-09-09T16:48:53.488Z,100.00
2022-09-09T16:51:25.885Z,100.00
2022-09-09T16:53:54.700Z,100.00
2022-09-09T16:56:27.485Z,100.00
2022-09-09T16:59:00.009Z,100.00
2022-09-09T17:01:29.913Z,100.00
2022-09-09T17:04:01.155Z,100.00
2022-09-09T17:06:30.661Z,100.00
2022-09-09T17:09:01.043Z,100.00
2022-09-09T17:11:29.772Z,100.00
2022-09-09T17:13:59.023Z,100.00
2022-09-09T17:16:29.433Z,100.00
2022-09-09T17:18:57.863Z,100.00
2022-09-09T17:21:26.544Z,100.00
2022-09-09T17:23:54.844Z,100.00
2022-09-09T17:26:23.603Z,100.00
2022-09-09T17:28:50.921Z,100.00
2022-09-09T17:31:19.410Z,100.00
2022-09-09T17:33:48.983Z,100.00
2022-09-09T17:36:23.009Z,100.00
2022-09-09T17:38:50.481Z,100.00
2022-09-09T17:41:23.563Z,100.00
2022-09-09T17:43:51.579Z,100.00
2022-09-09T17:46:24.651Z,100.00
2022-09-09T17:48:55.567Z,100.00
2022-09-09T17:51:25.532Z,100.00
2022-09-09T17:53:55.728Z,100.00
2022-09-09T17:56:24.493Z,100.00
2022-09-09T17:58:53.675Z,100.00
2022-09-09T18:01:23.455Z,100.00
2022-09-09T18:03:51.266Z,100.00
2022-09-09T18:06:24.140Z,100.00
2022-09-09T18:08:53.557Z,100.00
2022-09-09T18:11:21.117Z,100.00
2022-09-09T18:13:53.681Z,100.00
2022-09-09T18:16:22.365Z,100.00
2022-09-09T18:18:50.480Z,100.00
2022-09-09T18:21:19.319Z,100.00
2022-09-09T18:23:49.459Z,100.00
2022-09-09T18:26:19.614Z,100.00
2022-09-09T18:28:51.726Z,100.00
2022-09-09T18:31:21.200Z,100.00
2022-09-09T18:33:51.577Z,100.00
2022-09-09T18:36:24.517Z,100.00
2022-09-09T18:38:52.553Z,100.00
2022-09-09T18:41:22.456Z,100.00
2022-09-09T18:43:57.765Z,100.00
2022-09-09T18:46:26.481Z,100.00
2022-09-09T18:48:55.871Z,100.00
2022-09-09T18:51:25.217Z,100.00
2022-09-09T18:53:54.935Z,100.00
2022-09-09T18:56:22.963Z,100.00
2022-09-09T18:58:55.637Z,100.00
2022-09-09T19:01:23.329Z,100.00
2022-09-09T19:03:51.228Z,100.00
2022-09-09T19:06:23.756Z,100.00
2022-09-09T19:08:55.781Z,100.00
2022-09-09T19:11:26.629Z,100.00
2022-09-09T19:13:55.084Z,100.00
2022-09-09T19:16:23.779Z,100.00
2022-09-09T19:18:52.538Z,100.00
2022-09-09T19:21:23.079Z,100.00
2022-09-09T19:23:56.613Z,100.00
2022-09-09T19:26:24.050Z,100.00
2022-09-09T19:28:51.744Z,100.00
2022-09-09T19:31:20.348Z,100.00
2022-09-09T19:33:48.988Z,100.00
2022-09-09T19:36:18.280Z,100.00
2022-09-09T19:38:46.187Z,100.00
2022-09-09T19:41:20.383Z,100.00
2022-09-09T19:43:47.892Z,100.00
2022-09-09T19:46:16.228Z,100.00
2022-09-09T19:48:45.317Z,100.00
2022-09-09T19:51:15.344Z,100.00
2022-09-09T19:53:48.732Z,100.00
2022-09-09T19:56:18.289Z,100.00
2022-09-09T19:58:47.478Z,100.00
2022-09-09T20:01:23.162Z,100.00
2022-09-09T20:03:52.183Z,100.00
2022-09-09T20:06:23.545Z,100.00
2022-09-09T20:08:50.988Z,100.00
2022-09-09T20:11:18.615Z,100.00
2022-09-09T20:13:47.059Z,100.00
2022-09-09T20:16:16.890Z,100.00
2022-09-09T20:18:46.927Z,100.00
2022-09-09T20:21:16.927Z,100.00
2022-09-09T20:23:44.352Z,100.00
2022-09-09T20:26:14.111Z,100.00
2022-09-09T20:28:42.316Z,100.00
2022-09-09T20:31:19.947Z,100.00
2022-09-09T20:33:47.862Z,100.00
2022-09-09T20:36:18.314Z,100.00
2022-09-09T20:38:51.447Z,100.00
2022-09-09T20:41:21.607Z,100.00
2022-09-09T20:43:53.345Z,100.00
2022-09-09T20:46:25.325Z,100.00
2022-09-09T20:49:00.796Z,100.00
2022-09-09T20:51:33.071Z,100.00
2022-09-09T20:54:03.752Z,100.00
2022-09-09T20:56:34.381Z,100.00
2022-09-09T20:59:02.655Z,100.00
2022-09-09T21:01:29.739Z,100.00
2022-09-09T21:03:56.957Z,100.00
2022-09-09T21:06:24.039Z,100.00
2022-09-09T21:08:51.359Z,100.00
2022-09-09T21:11:18.606Z,100.00
2022-09-09T21:13:45.811Z,100.00
2022-09-09T21:16:15.828Z,100.00
2022-09-09T21:18:44.324Z,100.00
2022-09-09T21:21:12.003Z,100.00
2022-09-09T21:23:39.416Z,100.00
2022-09-09T21:26:07.632Z,100.00
2022-09-09T21:28:35.944Z,100.00
2022-09-09T21:31:05.545Z,100.00
2022-09-09T21:33:34.225Z,100.00
2022-09-09T21:36:06.313Z,100.00
2022-09-09T21:38:34.575Z,100.00
2022-09-09T21:41:07.465Z,100.00
2022-09-09T21:43:34.980Z,100.00
2022-09-09T21:46:07.670Z,100.00
2022-09-09T21:48:35.216Z,100.00
2022-09-09T21:51:11.271Z,100.00
2022-09-09T21:53:39.584Z,100.00
2022-09-09T21:56:10.640Z,100.00
2022-09-09T21:58:38.386Z,100.00
2022-09-09T22:01:14.555Z,100.00
2022-09-09T22:03:42.638Z,100.00
2022-09-09T22:06:12.849Z,100.00
2022-09-09T22:08:40.432Z,100.00
2022-09-09T22:11:09.842Z,100.00
2022-09-09T22:13:38.120Z,100.00
2022-09-09T22:16:07.779Z,100.00
2022-09-09T22:18:35.595Z,100.00
2022-09-09T22:21:15.866Z,100.00
2022-09-09T22:23:43.011Z,100.00
2022-09-09T22:26:10.314Z,100.00
2022-09-09T22:28:38.579Z,100.00
2022-09-09T22:31:06.073Z,100.00
2022-09-09T22:33:33.421Z,100.00
2022-09-09T22:36:00.632Z,100.00
2022-09-09T22:38:27.704Z,100.00
2022-09-09T22:40:54.867Z,100.00
2022-09-09T22:43:22.827Z,100.00
2022-09-09T22:45:50.782Z,100.00
2022-09-09T22:48:18.193Z,100.00
2022-09-09T22:50:46.589Z,100.00
2022-09-09T22:53:15.326Z,100.00
2022-09-09T22:55:43.585Z,100.00
2022-09-09T22:58:10.704Z,100.00
2022-09-09T23:00:41.041Z,100.00
2022-09-09T23:03:08.228Z,100.00
2022-09-09T23:05:36.097Z,100.00
2022-09-09T23:08:03.176Z,100.00
2022-09-09T23:10:33.709Z,100.00
2022-09-09T23:13:00.883Z,100.00
2022-09-09T23:15:29.244Z,100.00
2022-09-09T23:17:56.574Z,100.00
2022-09-09T23:20:26.097Z,100.00
2022-09-09T23:22:53.235Z,100.00
2022-09-09T23:25:20.283Z,100.00
2022-09-09T23:27:48.514Z,100.00
2022-09-09T23:30:15.629Z,100.00
2022-09-09T23:32:46.896Z,100.00
2022-09-09T23:35:14.824Z,100.00
2022-09-09T23:37:41.895Z,100.00
2022-09-09T23:40:10.534Z,100.00
2022-09-09T23:42:37.649Z,100.00
2022-09-09T23:45:05.429Z,100.00
2022-09-09T23:47:32.504Z,100.00
2022-09-09T23:49:59.617Z,100.00
2022-09-09T23:52:26.685Z,100.00
2022-09-09T23:54:53.814Z,100.00
2022-09-09T23:57:21.675Z,100.00
2022-09-09T23:59:48.753Z,100.00
